logo
Search for airport 
image banner adimage banner adimage banner ad
image banner ad

LOKQ - Oamtc/Nikolsdorf

Located in District Lienz, Austria

ICAO - LOKQ, IATA -

Data provided by Airmate  

General information

Coordinates: N46°47'59" E12°52'39"
Elevation is 2097 feet MSL.
 
View others Airports in Tyrol

Operational data

Special qualification required
Current time UTC:
Current local time:
Weather at : LIVD - Dobbiaco - Toblach Airport ( 50 km )
METAR: LIVD 150955Z AUTO 28006KT 230V320 //// 16/09 Q1015
View NOTAMs / SUP AIP / TFR affecting this airport [VIEW]
Communications frequencies: [VIEW]

Runways:

Airport contact information

Address: District Lienz Austria

Satellite view of LOKQ